createdAt,value
2018-08-19T00:00:53.727Z,6.20
2018-08-19T00:03:22.937Z,6.00
2018-08-19T00:05:53.038Z,6.57
2018-08-19T00:08:22.816Z,6.30
2018-08-19T00:11:01.156Z,6.43
2018-08-19T00:13:42.800Z,6.00
2018-08-19T00:16:12.412Z,7.93
2018-08-19T00:18:41.795Z,6.40
2018-08-19T00:21:12.306Z,8.50
2018-08-19T00:23:46.396Z,6.47
2018-08-19T00:26:15.772Z,7.00
2018-08-19T00:28:44.794Z,6.70
2018-08-19T00:31:14.610Z,6.20
2018-08-19T00:33:44.498Z,7.17
2018-08-19T00:36:25.536Z,7.00
2018-08-19T00:38:55.282Z,6.43
2018-08-19T00:41:24.499Z,7.20
2018-08-19T00:43:54.558Z,6.80
2018-08-19T00:46:39.137Z,6.83
2018-08-19T00:49:08.337Z,6.73
2018-08-19T00:51:39.710Z,6.87
2018-08-19T00:54:09.862Z,6.33
2018-08-19T00:56:38.909Z,6.53
2018-08-19T00:59:10.778Z,6.53
2018-08-19T01:01:39.803Z,6.70
2018-08-19T01:04:10.148Z,6.60
2018-08-19T01:06:44.257Z,6.10
2018-08-19T01:09:24.946Z,6.33
2018-08-19T01:11:55.630Z,6.20
2018-08-19T01:14:25.199Z,8.60
2018-08-19T01:34:14.534Z,7.43
2018-08-19T01:36:53.645Z,7.70
2018-08-19T01:39:22.623Z,8.03
2018-08-19T01:41:52.168Z,7.67
2018-08-19T01:44:21.213Z,8.17
2018-08-19T01:46:52.069Z,8.33
2018-08-19T01:49:21.054Z,8.73
2018-08-19T01:51:51.552Z,7.77
2018-08-19T01:54:22.634Z,7.80
2018-08-19T01:57:02.660Z,8.10
2018-08-19T01:59:34.030Z,8.37
2018-08-19T02:02:05.630Z,7.83
2018-08-19T02:04:41.298Z,7.90
2018-08-19T02:07:10.742Z,8.93
2018-08-19T02:09:53.495Z,8.10
2018-08-19T02:12:22.730Z,8.87
2018-08-19T02:14:52.420Z,9.00
2018-08-19T02:17:21.616Z,8.90
2018-08-19T02:19:52.173Z,8.13
2018-08-19T02:22:21.202Z,9.93
2018-08-19T02:24:53.487Z,9.27
2018-08-19T02:27:22.737Z,8.50
2018-08-19T02:29:52.643Z,9.07
2018-08-19T02:32:22.104Z,9.00
2018-08-19T02:34:52.515Z,9.07
2018-08-19T02:37:21.786Z,9.37
2018-08-19T02:39:53.833Z,9.57
2018-08-19T02:42:38.214Z,9.57
2018-08-19T02:45:08.556Z,9.73
2018-08-19T02:47:38.640Z,9.93
2018-08-19T02:50:07.819Z,11.17
2018-08-19T02:52:38.729Z,10.83
2018-08-19T02:55:08.874Z,11.27
2018-08-19T02:57:41.532Z,11.10
2018-08-19T03:00:13.931Z,10.90
2018-08-19T03:02:43.828Z,10.40
2018-08-19T03:05:17.685Z,10.60
2018-08-19T03:08:06.449Z,10.40
2018-08-19T03:10:36.151Z,9.50
2018-08-19T03:13:11.761Z,10.50
2018-08-19T03:15:41.730Z,11.90
2018-08-19T03:18:12.757Z,11.30
2018-08-19T03:20:43.429Z,11.50
2018-08-19T03:23:13.137Z,10.93
2018-08-19T03:25:43.962Z,11.77
2018-08-19T03:28:13.356Z,10.87
2018-08-19T03:30:57.536Z,12.00
2018-08-19T03:33:26.794Z,11.50
2018-08-19T03:35:56.189Z,12.37
2018-08-19T03:38:28.024Z,11.70
2018-08-19T03:40:58.214Z,12.87
2018-08-19T03:43:27.245Z,11.50
2018-08-19T03:45:58.622Z,11.73
2018-08-19T03:48:27.678Z,12.47
2018-08-19T03:50:56.803Z,12.90
2018-08-19T03:53:25.956Z,12.00
2018-08-19T03:55:54.982Z,11.53
2018-08-19T03:58:23.963Z,12.10
2018-08-19T04:00:53.461Z,12.33
2018-08-19T04:03:25.632Z,12.73
2018-08-19T04:05:58.954Z,11.87
2018-08-19T04:08:33.672Z,11.37
2018-08-19T04:11:05.469Z,11.27
2018-08-19T04:13:40.746Z,12.27
2018-08-19T04:16:11.129Z,11.83
2018-08-19T04:18:42.156Z,10.83
2018-08-19T04:21:12.807Z,12.10
2018-08-19T04:23:46.203Z,11.10
2018-08-19T04:26:15.319Z,11.60
2018-08-19T04:28:45.263Z,11.47
2018-08-19T04:31:19.507Z,12.30
2018-08-19T04:33:49.559Z,12.57
2018-08-19T04:36:21.334Z,14.50
2018-08-19T04:38:51.191Z,10.87
2018-08-19T04:41:20.373Z,10.60
2018-08-19T04:43:50.154Z,10.37
2018-08-19T04:46:19.208Z,9.60
2018-08-19T04:48:48.802Z,10.07
2018-08-19T04:51:17.758Z,8.83
2018-08-19T04:53:46.707Z,8.67
2018-08-19T04:56:16.488Z,9.57
2018-08-19T04:58:45.451Z,7.87
2018-08-19T05:01:14.551Z,11.53
2018-08-19T05:03:45.514Z,7.73
2018-08-19T05:06:14.528Z,7.77
2018-08-19T05:08:43.434Z,7.97
2018-08-19T05:11:12.580Z,7.50
2018-08-19T05:13:41.579Z,7.80
2018-08-19T05:16:10.655Z,7.73
2018-08-19T05:18:39.869Z,7.23
2018-08-19T05:21:14.809Z,8.47
2018-08-19T05:23:43.870Z,6.23
2018-08-19T05:26:14.404Z,6.93
2018-08-19T05:28:48.070Z,6.83
2018-08-19T05:31:17.131Z,6.70
2018-08-19T05:33:46.353Z,6.77
2018-08-19T05:36:16.378Z,6.60
2018-08-19T05:38:46.968Z,7.90
2018-08-19T05:41:17.434Z,7.23
2018-08-19T05:43:47.905Z,6.03
2018-08-19T05:46:17.098Z,7.77
2018-08-19T05:48:46.672Z,6.80
2018-08-19T05:51:17.348Z,6.20
2018-08-19T05:53:53.664Z,6.87
2018-08-19T05:56:22.767Z,7.93
2018-08-19T05:58:53.665Z,7.10
2018-08-19T06:01:27.898Z,5.73
2018-08-19T06:03:57.163Z,5.63
2018-08-19T06:06:26.231Z,5.80
2018-08-19T06:08:55.299Z,6.70
2018-08-19T06:11:25.570Z,6.60
2018-08-19T06:13:56.135Z,6.90
2018-08-19T06:16:26.177Z,7.37
2018-08-19T06:18:55.720Z,6.13
2018-08-19T06:21:24.771Z,5.63
2018-08-19T06:23:55.368Z,6.63
2018-08-19T06:26:29.325Z,5.40
2018-08-19T06:28:58.312Z,5.83
2018-08-19T06:31:28.421Z,6.90
2018-08-19T06:33:58.143Z,5.80
2018-08-19T06:36:28.042Z,5.50
2018-08-19T06:38:57.591Z,5.53
2018-08-19T06:41:28.497Z,6.07
2018-08-19T06:43:58.132Z,6.43
2018-08-19T06:46:28.226Z,6.10
2018-08-19T06:48:58.045Z,10.07
2018-08-19T06:51:27.272Z,7.47
2018-08-19T06:53:56.541Z,7.33
2018-08-19T06:56:25.742Z,6.87
2018-08-19T06:58:55.039Z,6.57
2018-08-19T07:01:24.447Z,6.87
2018-08-19T07:03:56.783Z,6.90
2018-08-19T07:06:25.805Z,6.37
2018-08-19T07:08:54.777Z,6.43
2018-08-19T07:11:23.965Z,6.73
2018-08-19T07:13:55.287Z,6.60
2018-08-19T07:16:24.497Z,7.10
2018-08-19T07:18:55.179Z,6.90
2018-08-19T07:21:26.210Z,7.00
2018-08-19T07:23:55.536Z,7.67
2018-08-19T07:26:24.508Z,8.73
2018-08-19T07:28:53.825Z,8.27
2018-08-19T07:31:22.860Z,8.20
2018-08-19T07:33:52.277Z,8.33
2018-08-19T07:36:21.287Z,8.70
2018-08-19T07:38:51.073Z,9.30
2018-08-19T07:41:20.036Z,9.47
2018-08-19T07:43:49.471Z,8.67
2018-08-19T07:46:18.933Z,8.47
2018-08-19T07:48:48.633Z,8.97
2018-08-19T07:51:17.748Z,9.17
2018-08-19T07:53:46.752Z,8.53
2018-08-19T07:56:15.911Z,9.53
2018-08-19T07:58:47.429Z,9.80
2018-08-19T08:01:17.009Z,9.70
2018-08-19T08:03:46.274Z,9.27
2018-08-19T08:06:15.400Z,10.87
2018-08-19T08:08:44.531Z,11.30
2018-08-19T08:11:13.596Z,10.90
2018-08-19T08:13:44.802Z,10.67
2018-08-19T08:16:14.183Z,9.77
2018-08-19T08:18:43.106Z,10.90
2018-08-19T08:21:14.685Z,10.60
2018-08-19T08:23:47.559Z,10.53
2018-08-19T08:26:16.766Z,11.18
2018-08-19T08:28:53.202Z,11.40
2018-08-19T08:31:22.351Z,11.60
2018-08-19T08:33:52.138Z,9.93
2018-08-19T08:36:21.150Z,12.60
2018-08-19T08:38:51.295Z,9.77
2018-08-19T08:41:20.271Z,10.10
2018-08-19T08:43:49.237Z,10.40
2018-08-19T08:46:18.220Z,10.17
2018-08-19T08:48:47.983Z,11.07
2018-08-19T08:55:02.663Z,10.43
2018-08-19T08:57:31.745Z,10.83
2018-08-19T09:00:00.725Z,12.30
2018-08-19T09:02:29.768Z,11.57
2018-08-19T09:22:13.662Z,13.33
2018-08-19T09:24:42.876Z,13.60
2018-08-19T09:27:11.951Z,12.63
2018-08-19T09:29:41.518Z,12.73
2018-08-19T09:32:10.583Z,12.93
2018-08-19T09:34:39.586Z,12.00
2018-08-19T09:37:08.813Z,12.63
2018-08-19T09:39:37.841Z,12.17
2018-08-19T09:42:12.398Z,13.83
2018-08-19T09:44:43.479Z,12.33
2018-08-19T09:47:12.667Z,12.80
2018-08-19T09:49:41.788Z,12.30
2018-08-19T09:52:10.837Z,11.67
2018-08-19T09:54:39.797Z,11.50
2018-08-19T09:57:09.807Z,12.40
2018-08-19T09:59:38.796Z,13.13
2018-08-19T10:02:09.276Z,11.80
2018-08-19T10:04:38.256Z,12.20
2018-08-19T10:07:13.469Z,12.63
2018-08-19T10:09:42.968Z,11.97
2018-08-19T10:12:13.191Z,12.10
2018-08-19T10:14:42.229Z,12.30
2018-08-19T10:17:11.403Z,12.10
2018-08-19T10:19:40.418Z,12.70
2018-08-19T10:22:09.618Z,11.83
2018-08-19T10:24:38.620Z,11.80
2018-08-19T10:27:08.885Z,11.80
2018-08-19T10:29:37.891Z,12.57
2018-08-19T10:32:06.878Z,10.97
2018-08-19T10:34:36.905Z,11.63
2018-08-19T10:37:06.487Z,12.93
2018-08-19T10:39:35.577Z,12.53
2018-08-19T10:42:17.514Z,11.87
2018-08-19T10:44:48.097Z,12.80
2018-08-19T10:47:17.199Z,13.57
2018-08-19T10:50:00.047Z,12.33
2018-08-19T10:52:30.737Z,12.50
2018-08-19T10:55:01.213Z,13.40
2018-08-19T10:57:30.332Z,13.57
2018-08-19T10:59:59.997Z,11.73
2018-08-19T11:02:29.029Z,12.23
2018-08-19T11:04:59.869Z,13.17
2018-08-19T11:07:29.075Z,12.07
2018-08-19T11:10:14.124Z,12.70
2018-08-19T11:12:43.103Z,12.83
2018-08-19T11:15:28.941Z,12.37
2018-08-19T11:17:58.909Z,12.33
2018-08-19T11:20:33.192Z,14.67
2018-08-19T11:23:07.196Z,13.40
2018-08-19T11:25:36.187Z,13.37
2018-08-19T11:28:15.000Z,12.50
2018-08-19T11:30:43.999Z,11.67
2018-08-19T11:33:14.844Z,12.33
2018-08-19T11:35:46.611Z,11.53
2018-08-19T11:38:15.544Z,12.50
2018-08-19T11:40:44.478Z,11.73
2018-08-19T11:43:13.421Z,12.33
2018-08-19T11:45:42.433Z,11.37
2018-08-19T11:48:11.545Z,12.40
2018-08-19T11:50:40.707Z,12.87
2018-08-19T11:53:09.670Z,11.73
2018-08-19T11:55:38.658Z,12.57
2018-08-19T11:58:07.754Z,11.83
2018-08-19T12:00:42.793Z,12.00
2018-08-19T12:03:11.808Z,10.97
2018-08-19T12:05:40.777Z,11.13
2018-08-19T12:08:09.715Z,10.40
2018-08-19T12:10:38.672Z,11.27
2018-08-19T12:13:07.576Z,12.30
2018-08-19T12:15:36.553Z,12.40
2018-08-19T12:18:05.564Z,11.50
2018-08-19T12:20:36.396Z,12.73
2018-08-19T12:23:05.388Z,12.40
2018-08-19T12:25:34.710Z,11.90
2018-08-19T12:28:03.727Z,12.43
2018-08-19T12:30:33.031Z,10.77
2018-08-19T12:33:12.698Z,12.80
2018-08-19T12:35:41.688Z,12.70
2018-08-19T12:38:10.713Z,10.80
2018-08-19T12:40:44.098Z,11.67
2018-08-19T12:43:13.070Z,12.77
2018-08-19T12:45:42.022Z,11.83
2018-08-19T12:48:11.133Z,11.20
2018-08-19T12:50:40.278Z,12.57
2018-08-19T12:53:09.407Z,11.17
2018-08-19T12:55:38.450Z,12.67
2018-08-19T12:58:08.498Z,13.67
2018-08-19T13:00:37.458Z,12.90
2018-08-19T13:03:06.569Z,13.27
2018-08-19T13:05:41.567Z,13.20
2018-08-19T13:08:12.825Z,13.30
2018-08-19T13:10:52.919Z,12.20
2018-08-19T13:13:22.208Z,12.93
2018-08-19T13:15:51.321Z,12.07
2018-08-19T13:18:29.243Z,13.07
2018-08-19T13:21:14.904Z,14.13
2018-08-19T13:23:43.883Z,12.17
2018-08-19T13:26:12.955Z,13.30
2018-08-19T13:28:44.549Z,12.63
2018-08-19T13:42:44.611Z,12.90
2018-08-19T13:45:14.130Z,13.00
2018-08-19T13:47:44.891Z,13.33
2018-08-19T13:50:14.068Z,11.43
2018-08-19T13:52:49.054Z,12.00
2018-08-19T13:55:22.612Z,11.33
2018-08-19T13:57:51.825Z,11.33
2018-08-19T14:00:23.695Z,11.83
2018-08-19T14:02:56.140Z,11.80
2018-08-19T14:05:25.111Z,11.80
2018-08-19T14:07:54.246Z,13.40
2018-08-19T14:10:29.185Z,27.93
2018-08-19T14:12:58.114Z,14.30
2018-08-19T14:15:27.636Z,19.93
2018-08-19T14:17:56.557Z,17.43
2018-08-19T14:20:28.847Z,15.07
2018-08-19T14:22:58.242Z,14.27
2018-08-19T14:25:28.777Z,15.77
2018-08-19T14:30:45.655Z,10.77
2018-08-19T14:33:15.274Z,13.43
2018-08-19T14:35:44.778Z,17.60
2018-08-19T14:38:14.788Z,18.50
2018-08-19T14:40:44.726Z,16.73
2018-08-19T14:43:14.985Z,11.90
2018-08-19T14:45:44.955Z,17.87
2018-08-19T14:48:14.429Z,20.57
2018-08-19T14:50:44.373Z,18.73
2018-08-19T14:53:13.394Z,15.50
2018-08-19T14:55:43.195Z,12.87
2018-08-19T14:58:12.817Z,11.93
2018-08-19T15:00:42.355Z,8.30
2018-08-19T15:03:13.427Z,12.63
2018-08-19T15:05:42.999Z,13.93
2018-08-19T15:08:20.345Z,17.97
2018-08-19T15:10:54.059Z,19.03
2018-08-19T15:13:23.358Z,18.57
2018-08-19T15:15:54.021Z,18.30
2018-08-19T15:18:24.676Z,19.00
2018-08-19T15:20:54.798Z,19.40
2018-08-19T15:23:26.437Z,19.07
2018-08-19T15:26:02.130Z,20.83
2018-08-19T15:28:31.379Z,19.83
2018-08-19T15:31:00.656Z,24.10
2018-08-19T15:33:31.701Z,20.63
2018-08-19T15:36:03.767Z,15.50
2018-08-19T15:38:33.797Z,16.37
2018-08-19T15:41:04.070Z,19.40
2018-08-19T15:43:33.379Z,15.43
2018-08-19T15:46:02.927Z,15.03
2018-08-19T15:48:33.275Z,14.10
2018-08-19T15:51:17.404Z,12.57
2018-08-19T15:53:47.796Z,14.87
2018-08-19T15:56:17.641Z,18.60
2018-08-19T15:58:46.810Z,14.80
2018-08-19T16:01:26.900Z,16.00
2018-08-19T16:04:28.015Z,18.23
2018-08-19T16:07:02.387Z,19.43
2018-08-19T16:09:32.158Z,21.63
2018-08-19T16:12:01.277Z,22.57
2018-08-19T16:14:32.332Z,25.77
2018-08-19T16:17:03.557Z,26.30
2018-08-19T16:19:33.255Z,27.57
2018-08-19T16:22:02.301Z,27.73
2018-08-19T16:24:32.912Z,25.70
2018-08-19T16:27:02.750Z,24.83
2018-08-19T16:29:33.219Z,25.07
2018-08-19T16:32:02.206Z,21.23
2018-08-19T16:34:31.708Z,20.07
2018-08-19T16:37:01.181Z,22.77
2018-08-19T16:39:32.157Z,23.53
2018-08-19T16:42:01.831Z,22.70
2018-08-19T16:44:30.837Z,23.10
2018-08-19T16:46:59.970Z,25.20
2018-08-19T16:49:29.773Z,26.97
2018-08-19T16:51:58.630Z,25.50
2018-08-19T16:54:29.223Z,27.37
2018-08-19T16:56:59.169Z,22.30
2018-08-19T16:59:28.391Z,22.70
2018-08-19T17:01:57.649Z,25.17
2018-08-19T17:04:26.857Z,22.23
2018-08-19T17:06:55.870Z,23.07
2018-08-19T17:09:25.081Z,21.83
2018-08-19T17:11:57.283Z,22.33
2018-08-19T17:14:26.250Z,22.63
2018-08-19T17:16:56.108Z,22.87
2018-08-19T17:19:26.307Z,26.60
2018-08-19T17:21:55.825Z,23.23
2018-08-19T17:24:25.358Z,23.67
2018-08-19T17:27:00.180Z,21.10
2018-08-19T17:29:31.814Z,20.37
2018-08-19T17:32:01.207Z,20.00
2018-08-19T17:34:31.015Z,21.17
2018-08-19T17:37:00.241Z,20.50
2018-08-19T17:39:32.131Z,22.43
2018-08-19T17:42:01.388Z,20.23
2018-08-19T17:44:30.392Z,18.37
2018-08-19T17:47:03.710Z,18.27
2018-08-19T17:49:33.298Z,17.30
2018-08-19T17:52:02.815Z,18.90
2018-08-19T17:54:39.846Z,20.20
2018-08-19T17:57:14.659Z,20.87
2018-08-19T17:59:44.321Z,23.37
2018-08-19T18:02:13.351Z,24.27
2018-08-19T18:04:46.677Z,28.23
2018-08-19T18:07:25.238Z,63.70
2018-08-19T18:10:53.258Z,56.93
2018-08-19T18:13:22.185Z,37.50
2018-08-19T18:15:51.929Z,31.07
2018-08-19T18:18:22.749Z,29.93
2018-08-19T18:20:51.947Z,29.67
2018-08-19T18:23:26.789Z,23.33
2018-08-19T18:25:55.806Z,24.77
2018-08-19T18:28:28.969Z,21.33
2018-08-19T18:31:04.485Z,24.33
2018-08-19T18:33:33.443Z,29.13
2018-08-19T18:36:02.364Z,24.53
2018-08-19T18:38:34.910Z,23.73
2018-08-19T18:41:03.846Z,26.23
2018-08-19T18:43:32.801Z,23.43
2018-08-19T18:46:02.647Z,63.67
2018-08-19T18:48:31.581Z,62.50
2018-08-19T18:51:00.954Z,79.53
2018-08-19T18:53:30.314Z,31.27
2018-08-19T18:55:59.292Z,18.67
2018-08-19T18:58:28.286Z,22.03
2018-08-19T19:01:00.848Z,21.13
2018-08-19T19:03:29.761Z,35.00
2018-08-19T19:05:58.757Z,21.20
2018-08-19T19:08:27.999Z,18.87
2018-08-19T19:11:02.092Z,23.83
2018-08-19T19:13:31.273Z,21.93
2018-08-19T19:16:00.507Z,21.53
2018-08-19T19:18:29.452Z,25.27
2018-08-19T19:21:03.203Z,25.17
2018-08-19T19:23:40.141Z,25.23
2018-08-19T19:26:09.737Z,24.37
2018-08-19T19:28:38.733Z,21.90
2018-08-19T19:31:12.697Z,20.53
2018-08-19T19:33:41.729Z,19.00
2018-08-19T19:36:15.707Z,19.37
2018-08-19T19:38:49.857Z,19.77
2018-08-19T19:41:26.901Z,18.37
2018-08-19T19:43:55.833Z,19.10
2018-08-19T19:46:25.233Z,21.70
2018-08-19T19:48:55.485Z,20.37
2018-08-19T19:51:24.703Z,18.67
2018-08-19T19:53:58.714Z,20.50
2018-08-19T19:56:27.850Z,22.57
2018-08-19T19:58:56.948Z,21.57
2018-08-19T20:01:25.950Z,21.00
2018-08-19T20:03:56.078Z,21.63
2018-08-19T20:06:25.457Z,21.77
2018-08-19T20:08:55.286Z,20.93
2018-08-19T20:11:30.458Z,21.03
2018-08-19T20:14:02.178Z,20.17
2018-08-19T20:16:31.241Z,19.77
2018-08-19T20:19:00.195Z,20.30
2018-08-19T20:21:30.470Z,21.97
2018-08-19T20:24:00.069Z,20.97
2018-08-19T20:26:31.121Z,20.50
2018-08-19T20:29:01.497Z,22.67
2018-08-19T20:31:30.387Z,21.53
2018-08-19T20:33:59.355Z,22.93
2018-08-19T20:36:28.377Z,22.33
2018-08-19T20:38:57.322Z,21.63
2018-08-19T20:41:26.257Z,21.00
2018-08-19T20:43:55.201Z,19.83
2018-08-19T20:46:24.346Z,21.23
2018-08-19T20:48:54.055Z,19.50
2018-08-19T20:51:22.931Z,19.63
2018-08-19T20:53:52.294Z,19.20
2018-08-19T20:56:21.209Z,22.13
2018-08-19T20:58:50.158Z,20.17
2018-08-19T21:01:24.045Z,17.20
2018-08-19T21:03:53.680Z,17.70
2018-08-19T21:06:22.550Z,19.23
2018-08-19T21:08:51.921Z,18.60
2018-08-19T21:11:20.833Z,18.90
2018-08-19T21:13:50.875Z,19.93
2018-08-19T21:16:19.797Z,17.83
2018-08-19T21:18:48.758Z,18.33
2018-08-19T21:21:17.663Z,18.07
2018-08-19T21:23:46.786Z,16.70
2018-08-19T21:26:15.973Z,17.33
2018-08-19T21:28:49.045Z,17.13
2018-08-19T21:31:18.148Z,16.83
2018-08-19T21:33:47.178Z,17.40
2018-08-19T21:36:16.130Z,17.20
2018-08-19T21:38:45.562Z,15.90
2018-08-19T21:41:14.550Z,15.93
2018-08-19T21:43:44.330Z,16.03
2018-08-19T21:46:13.640Z,16.73
2018-08-19T21:48:43.482Z,15.53
2018-08-19T21:51:12.398Z,14.93
2018-08-19T21:53:41.429Z,15.20
2018-08-19T21:56:10.312Z,15.37
2018-08-19T21:58:39.253Z,15.47
2018-08-19T22:01:13.143Z,14.63
2018-08-19T22:03:47.287Z,15.03
2018-08-19T22:06:16.191Z,14.57
2018-08-19T22:08:45.125Z,15.60
2018-08-19T22:11:14.041Z,15.30
2018-08-19T22:13:44.349Z,15.50
2018-08-19T22:16:13.406Z,14.90
2018-08-19T22:18:42.577Z,14.27
2018-08-19T22:21:17.168Z,15.40
2018-08-19T22:23:47.302Z,15.27
2018-08-19T22:26:17.469Z,15.27
2018-08-19T22:28:49.572Z,14.97
2018-08-19T22:31:27.111Z,15.93
2018-08-19T22:33:57.432Z,16.53
2018-08-19T22:36:26.473Z,16.83
2018-08-19T22:38:56.709Z,16.93
2018-08-19T22:41:27.885Z,15.87
2018-08-19T22:43:57.277Z,15.23
2018-08-19T22:46:26.855Z,14.33
2018-08-19T22:48:56.364Z,17.27
2018-08-19T22:51:26.260Z,18.13
2018-08-19T22:53:56.079Z,20.53
2018-08-19T22:56:24.975Z,16.67
2018-08-19T22:58:54.351Z,16.43
2018-08-19T23:01:23.626Z,17.80
2018-08-19T23:03:59.561Z,16.90
2018-08-19T23:06:29.412Z,15.47
2018-08-19T23:08:58.449Z,15.77
2018-08-19T23:11:36.625Z,15.73
2018-08-19T23:14:16.743Z,15.50
2018-08-19T23:16:45.842Z,14.70
2018-08-19T23:19:14.814Z,15.47
2018-08-19T23:21:43.721Z,15.70
2018-08-19T23:24:12.680Z,15.67
2018-08-19T23:26:41.537Z,14.97
2018-08-19T23:32:02.825Z,15.73
2018-08-19T23:40:14.384Z,15.03
2018-08-19T23:42:43.264Z,15.93
2018-08-19T23:45:12.260Z,14.33
2018-08-19T23:47:41.190Z,15.10
2018-08-19T23:50:10.209Z,14.73
2018-08-19T23:52:40.117Z,13.70
2018-08-19T23:55:09.575Z,13.60
2018-08-19T23:57:39.225Z,15.23
